sensor_id;sensor_type;location;lat;lon;timestamp;pressure;altitude;pressure_sealevel;temperature;humidity
28628;BME280;15815;46.760;19.604;2023-03-23T20:38:20;100127.53;;;13.57;54.38
28628;BME280;15815;46.760;19.604;2023-03-23T20:40:47;100150.91;;;13.58;54.59
28628;BME280;15815;46.760;19.604;2023-03-23T20:43:13;100158.53;;;13.61;54.73
28628;BME280;15815;46.760;19.604;2023-03-23T20:45:41;100152.19;;;13.53;54.92
28628;BME280;15815;46.760;19.604;2023-03-23T20:48:08;100158.78;;;13.47;55.06
28628;BME280;15815;46.760;19.604;2023-03-23T20:50:34;100144.88;;;13.33;55.62
28628;BME280;15815;46.760;19.604;2023-03-23T20:53:04;100160.88;;;13.39;55.73
28628;BME280;15815;46.760;19.604;2023-03-23T20:55:30;100152.09;;;13.34;55.81
28628;BME280;15815;46.760;19.604;2023-03-23T20:57:57;100158.56;;;13.34;55.87
28628;BME280;15815;46.760;19.604;2023-03-23T21:00:23;100152.97;;;13.30;55.60
28628;BME280;15815;46.760;19.604;2023-03-23T21:02:50;100130.59;;;13.16;55.88
28628;BME280;15815;46.760;19.604;2023-03-23T21:05:16;100151.50;;;13.22;56.60
28628;BME280;15815;46.760;19.604;2023-03-23T21:07:43;100141.22;;;13.05;56.57
28628;BME280;15815;46.760;19.604;2023-03-23T21:10:09;100139.63;;;13.04;56.46
28628;BME280;15815;46.760;19.604;2023-03-23T21:12:37;100114.09;;;12.88;56.35
28628;BME280;15815;46.760;19.604;2023-03-23T21:15:07;100131.81;;;12.88;56.70
28628;BME280;15815;46.760;19.604;2023-03-23T21:17:38;100117.38;;;12.83;56.87
28628;BME280;15815;46.760;19.604;2023-03-23T21:20:09;100154.31;;;12.92;58.23
28628;BME280;15815;46.760;19.604;2023-03-23T21:22:35;100110.25;;;12.75;56.50
28628;BME280;15815;46.760;19.604;2023-03-23T21:25:02;100141.47;;;12.87;56.72
28628;BME280;15815;46.760;19.604;2023-03-23T21:27:29;100131.31;;;12.66;57.23
28628;BME280;15815;46.760;19.604;2023-03-23T21:29:57;100122.44;;;12.68;57.17
28628;BME280;15815;46.760;19.604;2023-03-23T21:32:27;100133.28;;;12.69;57.29
28628;BME280;15815;46.760;19.604;2023-03-23T21:34:53;100139.78;;;12.66;57.09
28628;BME280;15815;46.760;19.604;2023-03-23T21:37:19;100145.88;;;12.61;57.45
28628;BME280;15815;46.760;19.604;2023-03-23T21:39:48;100115.50;;;12.42;57.41
28628;BME280;15815;46.760;19.604;2023-03-23T21:42:17;100115.50;;;12.42;57.91
28628;BME280;15815;46.760;19.604;2023-03-23T21:44:45;100104.28;;;12.38;57.70
28628;BME280;15815;46.760;19.604;2023-03-23T21:47:11;100133.88;;;12.54;57.81
28628;BME280;15815;46.760;19.604;2023-03-23T21:49:39;100116.75;;;12.41;58.18
28628;BME280;15815;46.760;19.604;2023-03-23T21:52:12;100107.97;;;12.35;58.25
28628;BME280;15815;46.760;19.604;2023-03-23T21:54:39;100096.31;;;12.33;58.39
28628;BME280;15815;46.760;19.604;2023-03-23T21:57:05;100116.38;;;12.39;58.41
28628;BME280;15815;46.760;19.604;2023-03-23T21:59:36;100109.97;;;12.35;59.03
28628;BME280;15815;46.760;19.604;2023-03-23T22:02:04;100116.31;;;12.43;58.55
28628;BME280;15815;46.760;19.604;2023-03-23T22:04:31;100119.50;;;12.45;58.63
28628;BME280;15815;46.760;19.604;2023-03-23T22:06:57;100112.41;;;12.33;59.55
28628;BME280;15815;46.760;19.604;2023-03-23T22:09:40;100119.19;;;12.39;58.76
28628;BME280;15815;46.760;19.604;2023-03-23T22:12:06;100119.59;;;12.37;59.00
28628;BME280;15815;46.760;19.604;2023-03-23T22:14:33;100096.41;;;12.23;58.66
28628;BME280;15815;46.760;19.604;2023-03-23T22:17:00;100114.03;;;12.30;58.69
28628;BME280;15815;46.760;19.604;2023-03-23T22:19:27;100112.09;;;12.24;59.05
28628;BME280;15815;46.760;19.604;2023-03-23T22:21:54;100103.47;;;12.07;59.60
28628;BME280;15815;46.760;19.604;2023-03-23T22:24:21;100099.75;;;12.14;59.12
28628;BME280;15815;46.760;19.604;2023-03-23T22:26:47;100094.16;;;12.11;58.51
28628;BME280;15815;46.760;19.604;2023-03-23T22:29:13;100096.59;;;12.09;58.61
28628;BME280;15815;46.760;19.604;2023-03-23T22:31:39;100113.41;;;12.16;58.73
28628;BME280;15815;46.760;19.604;2023-03-23T22:34:07;100114.31;;;12.09;59.49
28628;BME280;15815;46.760;19.604;2023-03-23T22:36:33;100103.13;;;11.98;59.33
28628;BME280;15815;46.760;19.604;2023-03-23T22:39:00;100110.31;;;12.03;59.31
28628;BME280;15815;46.760;19.604;2023-03-23T22:41:30;100097.22;;;11.89;59.28
28628;BME280;15815;46.760;19.604;2023-03-23T22:43:57;100113.59;;;11.98;59.07
28628;BME280;15815;46.760;19.604;2023-03-23T22:46:23;100108.47;;;11.89;59.50
28628;BME280;15815;46.760;19.604;2023-03-23T22:48:49;100116.47;;;11.94;59.72
28628;BME280;15815;46.760;19.604;2023-03-23T22:51:17;100111.28;;;11.89;59.04
28628;BME280;15815;46.760;19.604;2023-03-23T22:53:43;100112.47;;;11.92;59.55
28628;BME280;15815;46.760;19.604;2023-03-23T22:56:10;100108.91;;;11.88;59.13
28628;BME280;15815;46.760;19.604;2023-03-23T22:58:36;100127.72;;;11.94;58.92
28628;BME280;15815;46.760;19.604;2023-03-23T23:01:05;100132.56;;;11.94;59.06
28628;BME280;15815;46.760;19.604;2023-03-23T23:03:35;100133.09;;;11.82;59.05
28628;BME280;15815;46.760;19.604;2023-03-23T23:06:00;100118.69;;;11.69;58.75
28628;BME280;15815;46.760;19.604;2023-03-23T23:08:27;100137.22;;;11.66;59.18
28628;BME280;15815;46.760;19.604;2023-03-23T23:10:56;100130.16;;;11.48;60.00
28628;BME280;15815;46.760;19.604;2023-03-23T23:13:26;100125.34;;;11.44;59.69
28628;BME280;15815;46.760;19.604;2023-03-23T23:15:55;100105.38;;;11.32;60.33
28628;BME280;15815;46.760;19.604;2023-03-23T23:18:21;100102.69;;;11.14;60.19
28628;BME280;15815;46.760;19.604;2023-03-23T23:20:49;100136.00;;;11.19;60.63
28628;BME280;15815;46.760;19.604;2023-03-23T23:23:15;100121.19;;;11.11;60.76
28628;BME280;15815;46.760;19.604;2023-03-23T23:25:41;100114.03;;;11.03;60.45
28628;BME280;15815;46.760;19.604;2023-03-23T23:28:07;100118.50;;;10.94;61.64
28628;BME280;15815;46.760;19.604;2023-03-23T23:30:34;100137.38;;;10.97;61.45
28628;BME280;15815;46.760;19.604;2023-03-23T23:33:00;100126.56;;;10.92;61.88
28628;BME280;15815;46.760;19.604;2023-03-23T23:35:26;100122.66;;;10.75;61.75
28628;BME280;15815;46.760;19.604;2023-03-23T23:37:52;100125.41;;;10.82;62.07
28628;BME280;15815;46.760;19.604;2023-03-23T23:40:18;100137.00;;;10.91;61.92
28628;BME280;15815;46.760;19.604;2023-03-23T23:42:46;100126.66;;;10.77;61.48
28628;BME280;15815;46.760;19.604;2023-03-23T23:45:13;100138.72;;;10.74;62.10
28628;BME280;15815;46.760;19.604;2023-03-23T23:47:42;100139.94;;;10.66;62.30
28628;BME280;15815;46.760;19.604;2023-03-23T23:50:09;100140.34;;;10.65;62.27
28628;BME280;15815;46.760;19.604;2023-03-23T23:52:36;100141.97;;;10.69;62.27
28628;BME280;15815;46.760;19.604;2023-03-23T23:55:03;100121.97;;;10.53;62.85
28628;BME280;15815;46.760;19.604;2023-03-23T23:57:29;100138.06;;;10.45;63.13
28628;BME280;15815;46.760;19.604;2023-03-23T23:59:55;100132.47;;;10.35;63.04
